createdAt,value
2022-09-27T00:35:25.643Z,100
2022-09-27T00:36:25.641Z,100
2022-09-27T00:37:25.631Z,100
2022-09-27T00:38:25.635Z,100
2022-09-27T00:39:25.637Z,100
2022-09-27T00:40:25.718Z,100
2022-09-27T00:41:25.675Z,100
2022-09-27T00:42:25.636Z,100
2022-09-27T00:43:25.632Z,100
2022-09-27T00:44:25.679Z,100
2022-09-27T00:45:25.675Z,100
2022-09-27T00:46:25.714Z,100
2022-09-27T00:48:25.640Z,100
2022-09-27T00:49:25.640Z,100
2022-09-27T01:43:25.651Z,100
2022-09-27T01:44:25.641Z,100
2022-09-27T01:45:25.651Z,100
2022-09-27T01:46:25.732Z,100
2022-09-27T01:47:25.665Z,100
2022-09-27T01:48:25.639Z,100
2022-09-27T01:50:25.643Z,100
2022-09-27T01:51:25.647Z,100
2022-09-27T01:52:25.644Z,100
2022-09-27T01:53:25.652Z,100
2022-09-27T01:54:25.647Z,100
2022-09-27T01:55:25.644Z,100
2022-09-27T01:56:25.643Z,100
2022-09-27T01:57:25.637Z,100
2022-09-27T01:58:25.637Z,100
2022-09-27T03:18:25.645Z,100
2022-09-27T03:19:25.681Z,100
2022-09-27T03:20:25.646Z,100
2022-09-27T03:21:25.642Z,100
2022-09-27T03:22:25.648Z,100
2022-09-27T03:23:25.645Z,100
2022-09-27T03:24:25.654Z,100
2022-09-27T03:25:25.645Z,100
2022-09-27T03:26:25.660Z,100
2022-09-27T03:27:25.692Z,100
2022-09-27T03:28:25.649Z,100
2022-09-27T03:29:25.643Z,100
2022-09-27T03:31:25.810Z,100
2022-09-27T03:32:25.651Z,100
2022-09-27T03:41:28.794Z,100
2022-09-27T04:38:25.654Z,100
2022-09-27T04:39:25.656Z,100
2022-09-27T04:40:25.762Z,100
2022-09-27T04:41:25.683Z,100
2022-09-27T04:42:28.182Z,100
2022-09-27T04:43:25.662Z,100
2022-09-27T04:44:25.651Z,100
2022-09-27T04:45:25.651Z,100
2022-09-27T04:46:25.756Z,100
2022-09-27T04:47:25.658Z,100
2022-09-27T04:48:25.657Z,100
2022-09-27T04:49:25.657Z,100
2022-09-27T04:50:25.656Z,100
2022-09-27T04:51:25.688Z,100
2022-09-27T04:52:25.843Z,100
2022-09-27T05:14:04.894Z,100
2022-09-27T06:00:25.677Z,99.7
2022-09-27T06:01:25.706Z,99.5
2022-09-27T06:02:25.746Z,99.7
2022-09-27T06:03:25.668Z,99.3
2022-09-27T06:04:25.664Z,99
2022-09-27T06:05:25.662Z,99.9
2022-09-27T06:06:25.668Z,100
2022-09-27T06:07:25.684Z,99.4
2022-09-27T06:08:25.688Z,99.3
2022-09-27T06:09:25.664Z,98.3
2022-09-27T06:10:25.669Z,97.8
2022-09-27T06:11:25.657Z,98.7
2022-09-27T06:12:25.657Z,99.1
2022-09-27T06:13:25.663Z,99.1
2022-09-27T06:14:25.666Z,100
2022-09-27T06:15:25.670Z,100
2022-09-27T06:16:25.801Z,100
2022-09-27T07:14:25.671Z,94.6
2022-09-27T07:15:25.691Z,95.5
2022-09-27T07:16:25.693Z,95.4
2022-09-27T07:17:25.670Z,95
2022-09-27T07:18:25.665Z,94.5
2022-09-27T07:19:25.678Z,94.8
2022-09-27T07:20:25.708Z,95.3
2022-09-27T07:21:25.682Z,95.8
2022-09-27T07:22:25.665Z,96
2022-09-27T07:23:25.677Z,95.5
2022-09-27T07:25:25.695Z,95.6
2022-09-27T07:26:25.673Z,95
2022-09-27T07:27:25.658Z,94.8
2022-09-27T07:28:25.664Z,94.1
2022-09-27T07:29:25.696Z,93.1
2022-09-27T08:35:25.677Z,88.8
2022-09-27T08:36:25.685Z,88.9
2022-09-27T08:37:25.728Z,88.7
2022-09-27T08:38:25.676Z,88.8
2022-09-27T08:39:25.681Z,88.3
2022-09-27T08:40:25.757Z,87.1
2022-09-27T08:41:25.682Z,87
2022-09-27T08:42:25.741Z,86.8
2022-09-27T08:43:25.676Z,86.5
2022-09-27T08:44:25.678Z,86.7
2022-09-27T08:45:25.726Z,87.3
2022-09-27T08:46:25.688Z,86.4
2022-09-27T08:47:25.680Z,85.6
2022-09-27T08:49:25.676Z,87.3
2022-09-27T09:56:25.678Z,98.3
2022-09-27T09:57:25.740Z,97.9
2022-09-27T09:58:25.689Z,99.1
2022-09-27T09:59:25.718Z,99.1
2022-09-27T10:00:25.684Z,98.9
2022-09-27T10:01:25.793Z,99.4
2022-09-27T10:02:25.826Z,99.7
2022-09-27T10:03:26.466Z,99.6
2022-09-27T10:04:25.686Z,98.7
2022-09-27T10:05:25.688Z,98.6
2022-09-27T10:06:25.693Z,98.1
2022-09-27T10:07:25.683Z,98.6
2022-09-27T10:08:25.689Z,98.1
2022-09-27T10:10:25.689Z,98.4
2022-09-27T10:11:25.766Z,98.6
2022-09-27T11:14:25.695Z,91.4
2022-09-27T11:15:25.707Z,91.1
2022-09-27T11:16:25.763Z,91
2022-09-27T11:17:25.694Z,90.7
2022-09-27T11:18:25.690Z,91.9
2022-09-27T11:19:25.689Z,91.6
2022-09-27T11:20:25.689Z,91.1
2022-09-27T11:21:25.685Z,92.9
2022-09-27T11:22:25.735Z,92.3
2022-09-27T11:23:25.696Z,92.7
2022-09-27T11:24:25.699Z,90
2022-09-27T11:25:31.030Z,90.8
2022-09-27T11:26:25.692Z,90.9
2022-09-27T11:27:25.722Z,88.7
2022-09-27T11:28:25.706Z,90.2
2022-09-27T11:29:25.704Z,91.2
2022-09-27T11:47:58.882Z,87.3
2022-09-27T12:36:25.704Z,88.8
2022-09-27T12:37:25.695Z,88.5
2022-09-27T12:38:25.718Z,89.4
2022-09-27T12:39:25.702Z,90.2
2022-09-27T12:40:25.750Z,90.9
2022-09-27T12:41:25.698Z,91.2
2022-09-27T12:42:25.702Z,90
2022-09-27T12:43:25.703Z,91.5
2022-09-27T12:44:25.707Z,90.6
2022-09-27T12:45:25.698Z,91.7
2022-09-27T12:46:25.731Z,90.7
2022-09-27T12:47:25.735Z,90.7
2022-09-27T12:48:25.700Z,91.1
2022-09-27T12:49:25.725Z,91.8
2022-09-27T12:50:25.696Z,90.7
2022-09-27T12:51:25.698Z,91.4
2022-09-27T13:41:25.710Z,82.4
2022-09-27T13:42:25.704Z,83.2
2022-09-27T13:43:25.699Z,83.1
2022-09-27T13:44:25.705Z,81.3
2022-09-27T13:45:25.711Z,82.5
2022-09-27T13:46:25.764Z,81.4
2022-09-27T13:47:25.704Z,82.5
2022-09-27T13:48:25.701Z,82
2022-09-27T13:49:25.706Z,80.7
2022-09-27T13:50:25.706Z,80.4
2022-09-27T13:51:25.747Z,80.6
2022-09-27T13:52:25.699Z,80.6
2022-09-27T13:53:25.706Z,80.1
2022-09-27T13:54:25.713Z,79.3
2022-09-27T13:55:25.714Z,80.1
2022-09-27T13:56:25.702Z,80.1
2022-09-27T14:22:29.625Z,75.3
2022-09-27T15:08:25.717Z,72.5
2022-09-27T15:09:28.621Z,72.8
2022-09-27T15:10:25.723Z,71.7
2022-09-27T15:11:25.764Z,71.2
2022-09-27T15:12:25.717Z,72.2
2022-09-27T15:13:25.728Z,72.8
2022-09-27T15:14:25.803Z,72.3
2022-09-27T15:15:25.705Z,70.9
2022-09-27T15:16:25.748Z,70.9
2022-09-27T15:17:25.712Z,71.8
2022-09-27T15:18:25.719Z,73.2
2022-09-27T15:19:25.718Z,73.1
2022-09-27T15:20:25.718Z,72.7
2022-09-27T15:21:25.724Z,73.3
2022-09-27T15:22:25.711Z,72.1
2022-09-27T15:41:21.035Z,73.2
2022-09-27T15:46:17.476Z,74.2
2022-09-27T15:49:59.818Z,72.8
2022-09-27T15:50:57.778Z,71.8
2022-09-27T15:51:04.555Z,71.7
2022-09-27T15:51:26.391Z,72.7
2022-09-27T16:35:25.721Z,78.3
2022-09-27T16:36:25.730Z,79
2022-09-27T16:37:25.728Z,79.1
2022-09-27T16:38:25.723Z,78.2
2022-09-27T16:39:25.731Z,78.2
2022-09-27T16:40:25.799Z,78.3
2022-09-27T16:41:25.720Z,77.5
2022-09-27T16:42:25.728Z,76.9
2022-09-27T16:43:25.746Z,77.8
2022-09-27T16:44:25.730Z,77.4
2022-09-27T16:45:25.733Z,77.6
2022-09-27T16:46:25.797Z,77
2022-09-27T16:47:25.725Z,77.1
2022-09-27T16:48:25.729Z,77.4
2022-09-27T16:49:25.725Z,76.3
2022-09-27T17:53:25.741Z,82.5
2022-09-27T17:54:25.728Z,82.6
2022-09-27T17:55:25.738Z,82.9
2022-09-27T17:56:25.744Z,82.6
2022-09-27T17:57:25.739Z,82.7
2022-09-27T17:58:25.729Z,82.3
2022-09-27T17:59:25.729Z,82.2
2022-09-27T18:00:25.760Z,83.1
2022-09-27T18:01:25.816Z,83.2
2022-09-27T18:02:25.896Z,83.3
2022-09-27T18:03:25.743Z,83.5
2022-09-27T18:04:25.792Z,83.2
2022-09-27T18:05:25.734Z,82.7
2022-09-27T18:06:25.735Z,83.1
2022-09-27T18:07:25.745Z,83
2022-09-27T18:08:25.822Z,84.1
2022-09-27T19:15:25.743Z,95.8
2022-09-27T19:16:25.820Z,96.4
2022-09-27T19:17:25.766Z,96.8
2022-09-27T19:18:25.734Z,96.9
2022-09-27T19:19:25.735Z,97
2022-09-27T19:20:25.732Z,97.3
2022-09-27T19:21:25.781Z,97.5
2022-09-27T19:22:25.735Z,97
2022-09-27T19:23:25.737Z,97.3
2022-09-27T19:24:25.739Z,96.9
2022-09-27T19:25:25.733Z,96.8
2022-09-27T19:26:25.736Z,97
2022-09-27T19:27:25.739Z,98
2022-09-27T19:29:25.737Z,98.2
2022-09-27T19:30:25.817Z,97.4
2022-09-27T20:37:25.752Z,99.9
2022-09-27T20:38:25.739Z,100
2022-09-27T20:39:25.748Z,100
2022-09-27T20:40:25.782Z,100
2022-09-27T20:41:25.738Z,100
2022-09-27T20:42:25.744Z,100
2022-09-27T20:43:25.752Z,99.6
2022-09-27T20:44:25.747Z,99.6
2022-09-27T20:45:25.740Z,100
2022-09-27T20:46:25.808Z,100
2022-09-27T20:47:25.742Z,99.9
2022-09-27T20:48:25.737Z,99.9
2022-09-27T20:49:25.770Z,100
2022-09-27T20:50:25.748Z,100
2022-09-27T20:51:25.781Z,99.7
2022-09-27T20:52:25.824Z,99.8
2022-09-27T21:51:25.794Z,95.2
2022-09-27T21:52:25.760Z,95.2
2022-09-27T21:53:25.761Z,95.4
2022-09-27T21:54:25.751Z,95.3
2022-09-27T21:55:25.759Z,95.3
2022-09-27T21:56:25.759Z,94.6
2022-09-27T21:57:25.750Z,95.4
2022-09-27T21:58:25.755Z,95.1
2022-09-27T21:59:25.756Z,94.7
2022-09-27T22:00:25.773Z,94.9
2022-09-27T22:01:25.749Z,95.4
2022-09-27T22:02:25.834Z,94.4
2022-09-27T22:03:25.751Z,95.6
2022-09-27T22:04:25.747Z,96.3
2022-09-27T22:05:25.750Z,95.9
2022-09-27T22:06:25.790Z,95.8
2022-09-27T23:02:25.754Z,98.5
2022-09-27T23:03:25.897Z,98
2022-09-27T23:04:25.776Z,98.1
2022-09-27T23:05:25.773Z,98.2
2022-09-27T23:06:25.758Z,97.9
2022-09-27T23:07:25.756Z,99
2022-09-27T23:08:25.753Z,99.6
2022-09-27T23:09:25.798Z,99.6
2022-09-27T23:10:25.758Z,99.8
2022-09-27T23:11:25.765Z,100
2022-09-27T23:12:25.752Z,100
2022-09-27T23:13:25.761Z,100
2022-09-27T23:14:25.764Z,100
2022-09-27T23:15:25.759Z,99.8
2022-09-27T23:16:25.931Z,100
2022-09-27T23:17:25.839Z,100
